Terminal Aerodrome Forecast
Issued by NWS Shreveport, LA

Home | Current Version | Previous Version | Text Only | Print | Product List | Glossary On
Versions: 1 2 3 4 5 6 7 8 9 10 11 12 13 14 15 16 17
000
FTUS44 KSHV 021100 RRA
TAFSHV
TAF
KSHV 021148Z 0212/0312 04007KT 3SM -DZ BR OVC004
     FM021500 05009KT 4SM -DZ BR OVC007
     FM030300 08005KT 2SM -DZ BR OVC004
     FM030600 11003KT 1SM BR OVC004=

USA.gov is the U.S. government's official web portal to all federal, state and local government web resources and services.